createdAt,value
2018-02-05T00:00:30.284Z,3.00
2018-02-05T00:02:57.792Z,2.13
2018-02-05T00:05:25.289Z,2.83
2018-02-05T00:07:54.740Z,2.53
2018-02-05T00:10:23.016Z,2.30
2018-02-05T00:12:51.281Z,8.83
2018-02-05T00:15:19.562Z,2.97
2018-02-05T00:17:47.816Z,2.00
2018-02-05T00:20:15.330Z,1.90
2018-02-05T00:22:42.848Z,2.43
2018-02-05T00:25:11.128Z,2.83
2018-02-05T00:27:39.390Z,2.70
2018-02-05T00:30:07.873Z,2.57
2018-02-05T00:32:36.129Z,2.60
2018-02-05T00:35:03.649Z,3.70
2018-02-05T00:37:31.166Z,5.30
2018-02-05T00:39:59.474Z,2.13
2018-02-05T00:42:26.961Z,2.10
2018-02-05T00:44:54.449Z,3.80
2018-02-05T00:47:23.908Z,2.10
2018-02-05T00:49:51.404Z,2.37
2018-02-05T00:52:18.893Z,3.57
2018-02-05T00:54:46.404Z,3.93
2018-02-05T00:57:13.892Z,3.07
2018-02-05T00:59:42.174Z,2.50
2018-02-05T01:02:10.429Z,2.17
2018-02-05T01:04:38.711Z,3.87
2018-02-05T01:07:06.965Z,2.77
2018-02-05T01:09:34.500Z,2.77
2018-02-05T01:12:01.994Z,1.83
2018-02-05T01:14:30.331Z,3.53
2018-02-05T01:16:57.844Z,2.50
2018-02-05T01:19:26.095Z,3.10
2018-02-05T01:21:53.640Z,2.57
2018-02-05T01:24:22.633Z,3.63
2018-02-05T01:26:50.152Z,2.13
2018-02-05T01:29:17.640Z,2.50
2018-02-05T01:31:45.155Z,2.70
2018-02-05T01:34:12.646Z,2.30
2018-02-05T01:36:40.135Z,2.57
2018-02-05T01:39:08.412Z,3.17
2018-02-05T01:41:37.608Z,3.50
2018-02-05T01:44:07.848Z,3.13
2018-02-05T01:46:35.347Z,2.90
2018-02-05T01:49:02.855Z,2.20
2018-02-05T01:51:32.061Z,2.53
2018-02-05T01:53:59.586Z,2.70
2018-02-05T01:56:27.076Z,2.57
2018-02-05T01:58:54.564Z,2.33
2018-02-05T02:01:22.844Z,2.30
2018-02-05T02:03:50.335Z,2.60
2018-02-05T02:06:17.849Z,2.37
2018-02-05T02:08:45.337Z,2.37
2018-02-05T02:11:13.624Z,2.50
2018-02-05T02:13:41.122Z,2.23
2018-02-05T02:16:08.611Z,2.20
2018-02-05T02:18:38.078Z,2.23
2018-02-05T02:21:05.568Z,2.53
2018-02-05T02:23:33.084Z,3.00
2018-02-05T02:26:01.536Z,2.50
2018-02-05T02:28:29.044Z,3.53
2018-02-05T02:30:56.537Z,2.90
2018-02-05T02:33:24.032Z,2.93
2018-02-05T02:35:51.544Z,2.03
2018-02-05T02:38:20.538Z,2.23
2018-02-05T02:40:48.815Z,2.53
2018-02-05T02:43:17.072Z,3.00
2018-02-05T02:45:44.586Z,2.80
2018-02-05T02:48:12.157Z,2.80
2018-02-05T02:50:40.388Z,2.43
2018-02-05T02:53:07.901Z,2.63
2018-02-05T02:55:35.388Z,2.70
2018-02-05T02:58:03.664Z,2.33
2018-02-05T03:00:32.676Z,2.70
2018-02-05T03:03:00.184Z,2.40
2018-02-05T03:05:27.686Z,3.40
2018-02-05T03:07:55.224Z,2.30
2018-02-05T03:10:22.712Z,2.13
2018-02-05T03:12:50.981Z,2.87
2018-02-05T03:15:21.220Z,1.97
2018-02-05T03:17:48.708Z,2.80
2018-02-05T03:20:18.179Z,2.67
2018-02-05T03:22:46.436Z,2.40
2018-02-05T03:25:14.716Z,2.40
2018-02-05T03:27:42.979Z,2.57
2018-02-05T03:30:10.478Z,2.10
2018-02-05T03:32:38.021Z,2.40
2018-02-05T03:35:05.504Z,2.73
2018-02-05T03:37:33.008Z,2.60
2018-02-05T03:40:00.500Z,4.50
2018-02-05T03:42:29.968Z,2.47
2018-02-05T03:44:57.460Z,2.60
2018-02-05T03:47:24.944Z,2.73
2018-02-05T03:49:52.448Z,2.20
2018-02-05T03:52:20.713Z,2.07
2018-02-05T03:54:48.221Z,3.43
2018-02-05T03:57:15.718Z,2.53
2018-02-05T03:59:44.005Z,2.40
2018-02-05T04:02:12.281Z,2.53
2018-02-05T04:04:40.536Z,2.77
2018-02-05T04:07:16.475Z,2.80
2018-02-05T04:09:43.982Z,2.73
2018-02-05T04:12:12.266Z,2.70
2018-02-05T04:14:39.748Z,2.50
2018-02-05T04:17:07.260Z,4.27
2018-02-05T04:19:35.529Z,3.60
2018-02-05T04:22:03.812Z,2.40
2018-02-05T04:24:32.069Z,2.20
2018-02-05T04:26:59.556Z,2.50
2018-02-05T04:29:27.066Z,2.40
2018-02-05T04:31:54.560Z,2.47
2018-02-05T04:34:22.832Z,2.50
2018-02-05T04:36:51.153Z,2.43
2018-02-05T04:39:19.392Z,2.73
2018-02-05T04:41:46.880Z,2.43
2018-02-05T04:44:15.304Z,2.63
2018-02-05T04:46:42.829Z,2.50
2018-02-05T04:49:10.315Z,2.43
2018-02-05T04:51:37.829Z,2.70
2018-02-05T04:54:05.312Z,3.00
2018-02-05T04:56:32.833Z,2.77
2018-02-05T04:59:01.245Z,3.03
2018-02-05T05:01:28.748Z,3.30
2018-02-05T05:03:56.260Z,2.63
2018-02-05T05:06:23.752Z,3.00
2018-02-05T05:08:52.032Z,3.17
2018-02-05T05:11:20.301Z,3.07
2018-02-05T05:13:48.576Z,2.40
2018-02-05T05:16:16.833Z,2.60
2018-02-05T05:18:44.323Z,2.57
2018-02-05T05:21:11.833Z,2.93
2018-02-05T05:23:40.269Z,2.50
2018-02-05T05:26:07.782Z,3.93
2018-02-05T05:28:35.274Z,2.87
2018-02-05T05:31:02.784Z,3.03
2018-02-05T05:33:31.776Z,2.20
2018-02-05T05:35:59.272Z,2.60
2018-02-05T05:38:26.793Z,3.20
2018-02-05T05:40:56.012Z,2.80
2018-02-05T05:43:24.295Z,2.63
2018-02-05T05:45:52.553Z,2.87
2018-02-05T05:48:20.061Z,2.90
2018-02-05T05:50:48.495Z,2.70
2018-02-05T05:53:16.763Z,2.90
2018-02-05T05:55:44.272Z,2.40
2018-02-05T05:58:11.761Z,2.87
2018-02-05T06:00:39.268Z,2.43
2018-02-05T06:03:06.768Z,3.07
2018-02-05T06:05:34.290Z,2.50
2018-02-05T06:08:01.792Z,2.60
2018-02-05T06:10:30.292Z,2.57
2018-02-05T06:12:59.552Z,3.40
2018-02-05T06:15:27.042Z,2.50
2018-02-05T06:17:56.289Z,2.70
2018-02-05T06:20:23.776Z,2.80
2018-02-05T06:22:53.381Z,2.63
2018-02-05T06:25:20.872Z,2.47
2018-02-05T06:27:49.128Z,2.70
2018-02-05T06:30:16.649Z,3.33
2018-02-05T06:32:45.089Z,2.30
2018-02-05T06:35:12.600Z,2.80
2018-02-05T06:37:40.116Z,2.20
2018-02-05T06:40:07.651Z,3.00
2018-02-05T06:42:35.903Z,3.20
2018-02-05T06:45:03.396Z,2.50
2018-02-05T06:47:30.905Z,2.23
2018-02-05T06:49:58.392Z,3.27
2018-02-05T06:52:38.608Z,2.77
2018-02-05T06:58:07.262Z,2.30
2018-02-05T07:00:34.762Z,2.60
2018-02-05T07:03:02.300Z,2.60
2018-02-05T07:05:30.760Z,2.80
2018-02-05T07:07:58.276Z,2.60
2018-02-05T07:10:25.768Z,2.87
2018-02-05T07:12:54.028Z,6.03
2018-02-05T07:15:22.305Z,3.87
2018-02-05T07:17:51.514Z,2.60
2018-02-05T07:20:19.792Z,3.50
2018-02-05T07:22:48.229Z,2.77
2018-02-05T07:25:15.741Z,2.30
2018-02-05T07:27:43.236Z,2.80
2018-02-05T07:30:10.728Z,2.40
2018-02-05T07:32:39.000Z,2.30
2018-02-05T07:35:07.260Z,2.50
2018-02-05T07:37:36.705Z,2.67
2018-02-05T07:40:04.205Z,3.30
2018-02-05T07:42:31.711Z,2.60
2018-02-05T07:44:59.196Z,2.97
2018-02-05T07:47:26.700Z,3.07
2018-02-05T07:49:54.976Z,4.33
2018-02-05T07:52:23.228Z,2.73
2018-02-05T07:54:50.764Z,2.83
2018-02-05T07:57:18.264Z,2.57
2018-02-05T07:59:46.547Z,2.40
2018-02-05T08:02:14.804Z,2.30
2018-02-05T08:04:42.289Z,2.23
2018-02-05T08:07:09.801Z,3.90
2018-02-05T08:09:37.289Z,2.43
2018-02-05T08:12:07.520Z,3.00
2018-02-05T08:14:35.769Z,2.80
2018-02-05T08:17:03.279Z,2.60
2018-02-05T08:19:30.767Z,2.97
2018-02-05T08:21:58.288Z,3.17
2018-02-05T08:24:27.784Z,2.30
2018-02-05T08:26:55.281Z,2.43
2018-02-05T08:29:22.798Z,2.83
2018-02-05T08:31:50.297Z,2.47
2018-02-05T08:34:17.816Z,3.00
2018-02-05T08:36:45.308Z,2.90
2018-02-05T08:39:12.797Z,2.97
2018-02-05T08:41:41.097Z,2.80
2018-02-05T08:44:08.592Z,4.20
2018-02-05T08:46:36.118Z,3.20
2018-02-05T08:49:03.608Z,2.40
2018-02-05T08:51:31.129Z,6.80
2018-02-05T08:53:58.629Z,2.70
2018-02-05T08:56:26.112Z,2.90
2018-02-05T08:58:54.401Z,2.90
2018-02-05T09:01:22.656Z,3.13
2018-02-05T09:03:52.148Z,2.73
2018-02-05T09:06:21.143Z,3.50
2018-02-05T09:08:49.441Z,2.47
2018-02-05T09:11:17.692Z,3.00
2018-02-05T09:13:45.221Z,3.70
2018-02-05T09:16:12.733Z,4.10
2018-02-05T09:18:40.999Z,3.70
2018-02-05T09:21:09.277Z,3.83
2018-02-05T09:23:37.532Z,3.43
2018-02-05T09:26:05.047Z,6.30
2018-02-05T09:28:33.489Z,3.90
2018-02-05T09:31:01.760Z,7.83
2018-02-05T09:33:30.041Z,4.03
2018-02-05T09:35:58.306Z,3.57
2018-02-05T09:38:26.584Z,2.80
2018-02-05T09:40:54.845Z,2.87
2018-02-05T09:43:22.369Z,4.70
2018-02-05T09:45:49.901Z,3.23
2018-02-05T09:48:17.393Z,4.27
2018-02-05T09:50:44.900Z,3.73
2018-02-05T09:53:12.389Z,2.70
2018-02-05T09:55:39.899Z,3.13
2018-02-05T09:58:08.156Z,2.57
2018-02-05T10:00:35.670Z,3.03
2018-02-05T10:03:03.160Z,3.20
2018-02-05T10:05:31.608Z,2.80
2018-02-05T10:07:59.126Z,3.63
2018-02-05T10:10:27.380Z,3.10
2018-02-05T10:12:54.893Z,4.10
2018-02-05T10:15:22.385Z,3.00
2018-02-05T10:17:50.676Z,4.37
2018-02-05T10:20:18.969Z,3.73
2018-02-05T10:22:47.233Z,4.53
2018-02-05T10:25:17.490Z,4.33
2018-02-05T10:27:45.932Z,3.20
2018-02-05T10:30:14.212Z,3.10
2018-02-05T10:32:42.476Z,3.00
2018-02-05T10:35:09.985Z,3.40
2018-02-05T10:37:37.475Z,5.40
2018-02-05T10:40:05.020Z,2.80
2018-02-05T10:42:32.528Z,2.73
2018-02-05T10:45:00.811Z,2.47
2018-02-05T10:47:28.334Z,2.97
2018-02-05T10:49:55.835Z,3.87
2018-02-05T10:52:25.341Z,2.70
2018-02-05T10:54:52.856Z,2.63
2018-02-05T10:57:20.376Z,3.50
2018-02-05T10:59:47.869Z,2.87
2018-02-05T11:02:16.132Z,32.43
2018-02-05T11:04:44.421Z,49.83
2018-02-05T11:07:11.916Z,23.77
2018-02-05T11:09:39.440Z,45.87
2018-02-05T11:12:07.732Z,60.10
2018-02-05T11:14:35.266Z,128.83
2018-02-05T11:17:02.772Z,83.97
2018-02-05T11:19:30.304Z,96.23
2018-02-05T11:21:57.890Z,82.67
2018-02-05T11:24:25.431Z,81.13
2018-02-05T11:26:52.948Z,62.63
2018-02-05T11:29:20.575Z,71.33
2018-02-05T11:31:48.068Z,62.30
2018-02-05T11:34:16.659Z,72.20
2018-02-05T11:36:45.380Z,65.07
2018-02-05T11:39:13.609Z,70.30
2018-02-05T11:41:42.116Z,60.23
2018-02-05T11:44:09.648Z,57.83
2018-02-05T11:46:37.148Z,54.27
2018-02-05T11:49:04.680Z,54.00
2018-02-05T11:51:32.944Z,55.33
2018-02-05T11:54:01.208Z,49.47
2018-02-05T11:56:28.728Z,56.40
2018-02-05T11:58:57.168Z,37.43
2018-02-05T12:01:25.452Z,41.00
2018-02-05T12:03:52.944Z,57.80
2018-02-05T12:06:20.509Z,48.87
2018-02-05T12:08:48.027Z,37.70
2018-02-05T12:11:15.687Z,43.80
2018-02-05T12:13:43.769Z,36.43
2018-02-05T12:16:13.478Z,28.20
2018-02-05T12:18:41.005Z,39.17
2018-02-05T12:21:09.273Z,35.40
2018-02-05T12:23:37.561Z,37.00
2018-02-05T12:26:05.917Z,34.73
2018-02-05T12:28:34.251Z,34.97
2018-02-05T12:31:03.236Z,38.47
2018-02-05T12:33:31.813Z,43.03
2018-02-05T12:36:00.634Z,24.33
2018-02-05T12:38:28.566Z,27.53
2018-02-05T12:40:56.117Z,28.33
2018-02-05T12:43:23.638Z,36.80
2018-02-05T12:45:51.180Z,25.03
2018-02-05T12:48:18.704Z,25.93
2018-02-05T12:50:46.237Z,29.43
2018-02-05T12:53:13.772Z,21.30
2018-02-05T12:55:42.053Z,21.40
2018-02-05T12:58:10.346Z,19.00
2018-02-05T13:00:43.520Z,25.33
2018-02-05T13:03:17.533Z,23.07
2018-02-05T13:08:50.128Z,20.20
2018-02-05T13:11:18.403Z,21.17
2018-02-05T13:13:46.651Z,20.90
2018-02-05T13:16:14.164Z,21.20
2018-02-05T13:18:41.676Z,20.20
2018-02-05T13:21:09.168Z,19.17
2018-02-05T13:23:36.683Z,21.00
2018-02-05T13:26:04.260Z,16.97
2018-02-05T13:28:32.516Z,17.00
2018-02-05T13:31:00.035Z,15.80
2018-02-05T13:33:27.548Z,9.80
2018-02-05T13:35:55.836Z,14.40
2018-02-05T13:38:23.336Z,12.60
2018-02-05T13:40:50.829Z,12.43
2018-02-05T13:43:19.109Z,14.60
2018-02-05T13:45:47.380Z,14.10
2018-02-05T13:48:16.823Z,13.40
2018-02-05T13:50:44.324Z,16.03
2018-02-05T13:53:11.840Z,30.63
2018-02-05T13:55:39.337Z,138.50
2018-02-05T13:58:06.845Z,90.03
2018-02-05T14:00:34.364Z,48.10
2018-02-05T14:03:01.862Z,66.90
2018-02-05T14:05:29.376Z,63.10
2018-02-05T14:07:56.876Z,50.27
2018-02-05T14:10:24.397Z,42.03
2018-02-05T14:12:52.688Z,48.23
2018-02-05T14:15:20.961Z,44.57
2018-02-05T14:17:49.245Z,43.27
2018-02-05T14:20:17.719Z,38.07
2018-02-05T14:22:45.996Z,44.10
2018-02-05T14:25:14.253Z,51.80
2018-02-05T14:27:42.529Z,39.80
2018-02-05T14:30:10.801Z,42.13
2018-02-05T14:32:39.088Z,32.47
2018-02-05T14:35:07.348Z,39.20
2018-02-05T14:37:34.860Z,34.83
2018-02-05T14:40:02.358Z,31.40
2018-02-05T14:42:29.853Z,27.93
2018-02-05T14:44:57.384Z,37.07
2018-02-05T14:47:25.666Z,37.30
2018-02-05T14:49:53.953Z,27.37
2018-02-05T14:52:21.453Z,25.10
2018-02-05T14:54:48.975Z,29.77
2018-02-05T14:57:16.474Z,25.27
2018-02-05T14:59:44.011Z,25.40
2018-02-05T15:02:11.505Z,35.63
2018-02-05T15:04:39.008Z,23.70
2018-02-05T15:07:08.515Z,30.97
2018-02-05T15:09:36.012Z,23.53
2018-02-05T15:12:05.036Z,25.67
2018-02-05T15:14:32.548Z,25.93
2018-02-05T15:17:00.069Z,20.40
2018-02-05T15:19:27.565Z,22.80
2018-02-05T15:21:55.096Z,23.40
2018-02-05T15:24:22.646Z,22.10
2018-02-05T15:26:50.901Z,22.83
2018-02-05T15:29:19.180Z,23.17
2018-02-05T15:31:46.693Z,21.77
2018-02-05T15:34:14.210Z,19.60
2018-02-05T15:36:41.700Z,23.00
2018-02-05T15:39:09.233Z,17.50
2018-02-05T15:41:37.728Z,17.17
2018-02-05T15:44:05.249Z,17.13
2018-02-05T15:46:32.748Z,16.30
2018-02-05T15:49:01.235Z,21.00
2018-02-05T15:51:28.748Z,20.03
2018-02-05T15:53:56.237Z,15.63
2018-02-05T15:56:23.783Z,19.47
2018-02-05T15:58:51.272Z,19.17
2018-02-05T16:01:19.557Z,18.30
2018-02-05T16:03:47.053Z,14.17
2018-02-05T16:06:14.582Z,15.87
2018-02-05T16:08:43.797Z,19.97
2018-02-05T16:11:12.054Z,16.63
2018-02-05T16:13:40.341Z,17.50
2018-02-05T16:16:07.855Z,16.03
2018-02-05T16:18:35.378Z,12.67
2018-02-05T16:21:02.913Z,13.43
2018-02-05T16:23:30.443Z,12.50
2018-02-05T16:25:57.967Z,13.93
2018-02-05T16:28:25.482Z,13.60
2018-02-05T16:30:53.757Z,12.93
2018-02-05T16:33:22.083Z,14.30
2018-02-05T16:35:49.566Z,12.27
2018-02-05T16:38:17.060Z,9.07
2018-02-05T16:40:44.572Z,14.00
2018-02-05T16:43:12.071Z,11.50
2018-02-05T16:45:39.628Z,14.07
2018-02-05T16:48:08.087Z,18.23
2018-02-05T16:50:36.368Z,14.10
2018-02-05T16:53:05.572Z,13.13
2018-02-05T16:55:33.828Z,11.17
2018-02-05T16:58:01.347Z,17.90
2018-02-05T17:00:29.810Z,10.93
2018-02-05T17:02:58.221Z,9.43
2018-02-05T17:05:25.720Z,13.40
2018-02-05T17:07:54.014Z,12.93
2018-02-05T17:10:21.507Z,13.17
2018-02-05T17:12:49.025Z,12.60
2018-02-05T17:15:16.552Z,15.37
2018-02-05T17:17:44.808Z,13.50
2018-02-05T17:20:13.100Z,14.80
2018-02-05T17:22:41.356Z,13.67
2018-02-05T17:25:09.636Z,14.67
2018-02-05T17:27:37.141Z,11.80
2018-02-05T17:30:04.660Z,13.67
2018-02-05T17:32:32.156Z,15.47
2018-02-05T17:34:59.709Z,14.90
2018-02-05T17:37:27.204Z,13.13
2018-02-05T17:39:54.715Z,15.00
2018-02-05T17:42:22.233Z,13.17
2018-02-05T17:44:50.672Z,11.70
2018-02-05T17:47:18.197Z,13.23
2018-02-05T17:49:46.460Z,13.07
2018-02-05T17:52:14.761Z,13.90
2018-02-05T17:54:42.256Z,9.53
2018-02-05T17:57:09.832Z,11.13
2018-02-05T17:59:37.297Z,10.80
2018-02-05T18:02:04.812Z,10.67
2018-02-05T18:04:32.323Z,8.27
2018-02-05T18:07:00.589Z,8.90
2018-02-05T18:09:28.868Z,11.47
2018-02-05T18:11:57.129Z,11.60
2018-02-05T18:14:24.644Z,9.47
2018-02-05T18:16:53.079Z,10.70
2018-02-05T18:19:21.340Z,12.63
2018-02-05T18:21:48.866Z,11.23
2018-02-05T18:24:16.387Z,11.00
2018-02-05T18:26:44.660Z,15.03
2018-02-05T18:29:12.923Z,11.70
2018-02-05T18:31:41.334Z,8.67
2018-02-05T18:34:08.839Z,7.07
2018-02-05T18:36:36.356Z,11.00
2018-02-05T18:39:03.849Z,7.73
2018-02-05T18:41:32.292Z,9.07
2018-02-05T18:43:59.823Z,8.07
2018-02-05T18:46:27.311Z,8.27
2018-02-05T18:48:54.820Z,7.40
2018-02-05T18:51:23.073Z,10.07
2018-02-05T18:53:51.345Z,10.23
2018-02-05T18:59:21.069Z,9.07
2018-02-05T19:02:00.348Z,7.20
2018-02-05T19:04:27.864Z,9.43
2018-02-05T19:06:55.384Z,12.67
2018-02-05T19:09:23.824Z,8.07
2018-02-05T19:11:52.104Z,6.87
2018-02-05T19:14:20.365Z,6.47
2018-02-05T19:16:48.624Z,5.87
2018-02-05T19:19:16.923Z,6.17
2018-02-05T19:21:45.704Z,9.00
2018-02-05T19:24:13.231Z,6.27
2018-02-05T19:26:40.728Z,8.27
2018-02-05T19:29:09.917Z,9.70
2018-02-05T19:31:38.178Z,6.63
2018-02-05T19:34:07.641Z,10.30
2018-02-05T19:36:35.153Z,7.60
2018-02-05T19:39:04.359Z,8.10
2018-02-05T19:41:32.636Z,7.27
2018-02-05T19:44:00.920Z,8.47
2018-02-05T19:46:28.416Z,6.23
2018-02-05T19:48:56.154Z,6.53
2018-02-05T19:51:24.020Z,6.30
2018-02-05T19:53:52.509Z,6.03
2018-02-05T19:56:21.594Z,6.53
2018-02-05T19:58:49.089Z,5.53
2018-02-05T20:01:16.618Z,8.40
2018-02-05T20:03:44.121Z,6.17
2018-02-05T20:06:13.576Z,6.87
2018-02-05T20:08:41.068Z,5.87
2018-02-05T20:11:08.565Z,9.83
2018-02-05T20:13:36.085Z,6.63
2018-02-05T20:16:05.286Z,6.23
2018-02-05T20:18:34.756Z,7.43
2018-02-05T20:21:02.287Z,7.90
2018-02-05T20:23:30.532Z,7.27
2018-02-05T20:25:58.828Z,7.60
2018-02-05T20:28:26.372Z,6.53
2018-02-05T20:30:53.904Z,8.17
2018-02-05T20:33:22.917Z,6.60
2018-02-05T20:35:51.197Z,6.17
2018-02-05T20:38:19.463Z,6.63
2018-02-05T20:40:47.047Z,6.30
2018-02-05T20:43:14.609Z,5.10
2018-02-05T20:45:42.103Z,6.37
2018-02-05T20:48:09.612Z,7.33
2018-02-05T20:50:37.877Z,6.67
2018-02-05T20:53:06.154Z,7.13
2018-02-05T20:55:34.428Z,4.60
2018-02-05T20:58:03.183Z,7.03
2018-02-05T21:00:31.693Z,4.90
2018-02-05T21:02:59.972Z,7.23
2018-02-05T21:05:28.246Z,6.40
2018-02-05T21:07:56.528Z,6.10
2018-02-05T21:10:24.801Z,4.77
2018-02-05T21:12:53.064Z,7.20
2018-02-05T21:15:21.349Z,4.90
2018-02-05T21:17:49.655Z,6.50
2018-02-05T21:20:17.161Z,8.57
2018-02-05T21:22:45.444Z,6.80
2018-02-05T21:25:13.757Z,5.23
2018-02-05T21:27:41.244Z,4.40
2018-02-05T21:30:08.760Z,4.37
2018-02-05T21:32:36.276Z,6.50
2018-02-05T21:35:04.761Z,5.23
2018-02-05T21:37:33.044Z,5.60
2018-02-05T21:40:00.529Z,5.47
2018-02-05T21:42:28.049Z,5.70
2018-02-05T21:44:56.478Z,5.30
2018-02-05T21:47:23.977Z,7.03
2018-02-05T21:49:53.005Z,5.40
2018-02-05T21:52:21.277Z,4.33
2018-02-05T21:54:50.544Z,6.07
2018-02-05T21:57:19.546Z,5.47
2018-02-05T21:59:47.080Z,6.57
2018-02-05T22:02:14.578Z,4.50
2018-02-05T22:04:42.855Z,4.60
2018-02-05T22:07:11.331Z,4.33
2018-02-05T22:09:39.705Z,5.80
2018-02-05T22:12:07.244Z,4.80
2018-02-05T22:14:34.745Z,6.20
2018-02-05T22:17:02.260Z,10.40
2018-02-05T22:19:29.747Z,4.80
2018-02-05T22:21:57.249Z,4.90
2018-02-05T22:24:24.769Z,4.87
2018-02-05T22:26:52.289Z,6.07
2018-02-05T22:29:19.804Z,5.30
2018-02-05T22:31:47.341Z,5.07
2018-02-05T22:34:14.888Z,4.10
2018-02-05T22:36:42.385Z,9.73
2018-02-05T22:39:09.931Z,7.77
2018-02-05T22:41:37.448Z,4.13
2018-02-05T22:44:07.245Z,5.20
2018-02-05T22:46:34.760Z,4.70
2018-02-05T22:49:02.249Z,4.30
2018-02-05T22:51:32.497Z,4.40
2018-02-05T22:54:00.753Z,7.63
2018-02-05T22:56:28.272Z,4.47
2018-02-05T22:58:55.770Z,4.77
2018-02-05T23:01:25.238Z,10.63
2018-02-05T23:03:52.752Z,7.17
2018-02-05T23:06:21.021Z,4.90
2018-02-05T23:08:50.205Z,4.00
2018-02-05T23:11:17.699Z,5.40
2018-02-05T23:13:45.188Z,4.30
2018-02-05T23:16:12.722Z,4.53
2018-02-05T23:18:40.221Z,5.27
2018-02-05T23:21:07.752Z,4.80
2018-02-05T23:23:36.197Z,5.97
2018-02-05T23:26:03.729Z,5.20
2018-02-05T23:28:38.688Z,4.10
2018-02-05T23:31:06.200Z,5.13
2018-02-05T23:33:33.712Z,6.40
2018-02-05T23:36:01.196Z,4.10
2018-02-05T23:38:28.712Z,5.73
2018-02-05T23:40:57.172Z,11.20
2018-02-05T23:43:24.681Z,5.20
2018-02-05T23:45:52.202Z,17.73
2018-02-05T23:48:21.809Z,4.17
2018-02-05T23:50:50.167Z,7.30
2018-02-05T23:53:18.421Z,4.80
2018-02-05T23:55:46.041Z,8.83
2018-02-05T23:58:14.699Z,7.73
